createdAt,value
2023-02-01T00:05:32.012Z,1.1
2023-02-01T00:10:58.044Z,1.1
2023-02-01T00:16:52.471Z,1.2
2023-02-01T00:27:57.570Z,1.4
2023-02-01T00:33:08.930Z,1.4
2023-02-01T00:38:48.554Z,1.5
2023-02-01T00:44:36.557Z,1.7
2023-02-01T00:50:00.701Z,0.9
2023-02-01T00:55:22.251Z,0.7
2023-02-01T01:01:04.877Z,0.8
2023-02-01T01:06:37.164Z,0.9
2023-02-01T01:12:17.597Z,1.3
2023-02-01T01:17:50.421Z,1.3
2023-02-01T01:23:04.039Z,1.2
2023-02-01T01:29:00.222Z,1.2
2023-02-01T01:34:20.147Z,1
2023-02-01T01:39:57.346Z,0.8
2023-02-01T01:45:10.525Z,1
2023-02-01T01:50:57.579Z,0.9
2023-02-01T01:56:25.320Z,0.8
2023-02-01T02:02:13.741Z,0.7
2023-02-01T02:07:38.914Z,0.5
2023-02-01T02:13:00.688Z,0.4
2023-02-01T02:18:36.449Z,0.1
2023-02-01T02:24:08.799Z,0.1
2023-02-01T02:29:59.086Z,0
2023-02-01T02:35:26.043Z,0
2023-02-01T02:41:00.922Z,-0.5
2023-02-01T02:46:22.236Z,-0.1
2023-02-01T02:51:44.468Z,-0.1
2023-02-01T02:57:30.829Z,-0.1
2023-02-01T03:03:05.022Z,-0.3
2023-02-01T03:08:23.293Z,-0.3
2023-02-01T03:14:04.754Z,-0.4
2023-02-01T03:19:25.224Z,-0.3
2023-02-01T03:24:59.689Z,-0.4
2023-02-01T03:30:51.765Z,-0.1
2023-02-01T03:36:10.832Z,-0.1
2023-02-01T03:41:51.956Z,-0.3
2023-02-01T03:47:19.937Z,-0.4
2023-02-01T03:52:50.532Z,-0.3
2023-02-01T03:58:27.517Z,-0.2
2023-02-01T04:03:56.067Z,-0.2
2023-02-01T04:09:29.446Z,-0.2
2023-02-01T04:15:07.436Z,-0.5
2023-02-01T04:20:45.092Z,-0.3
2023-02-01T04:26:08.343Z,-0.1
2023-02-01T04:31:41.510Z,-0.2
2023-02-01T04:37:11.956Z,-0.4
2023-02-01T04:42:49.646Z,-0.5
2023-02-01T04:48:16.445Z,-0.6
2023-02-01T04:53:42.893Z,-0.7
2023-02-01T04:59:21.411Z,-0.7
2023-02-01T05:05:09.957Z,-0.8
2023-02-01T05:10:28.027Z,-0.7
2023-02-01T05:16:08.468Z,-0.4
2023-02-01T05:21:36.720Z,-0.3
2023-02-01T05:26:57.683Z,-0.3
2023-02-01T05:32:55.629Z,0
2023-02-01T05:38:01.628Z,0
2023-02-01T05:43:49.387Z,-0.4
2023-02-01T05:49:23.485Z,-0.2
2023-02-01T05:55:01.675Z,0.3
2023-02-01T06:00:25.152Z,0.5
2023-02-01T06:05:58.026Z,0.4
2023-02-01T06:11:37.016Z,0.3
2023-02-01T06:17:02.305Z,0.2
2023-02-01T06:22:46.946Z,0
2023-02-01T06:28:01.885Z,0
2023-02-01T06:33:38.519Z,0
2023-02-01T06:39:18.435Z,0.1
2023-02-01T06:44:36.508Z,0.1
2023-02-01T06:50:17.957Z,0.3
2023-02-01T06:56:00.304Z,0.3
2023-02-01T07:01:39.490Z,0.4
2023-02-01T07:06:49.829Z,0.4
2023-02-01T07:12:25.594Z,0.6
2023-02-01T07:17:58.062Z,0.6
2023-02-01T07:23:33.739Z,0.8
2023-02-01T07:29:01.315Z,0.7
2023-02-01T07:34:43.972Z,0.9
2023-02-01T07:40:27.597Z,1.1
2023-02-01T07:45:39.349Z,1
2023-02-01T07:51:22.189Z,0.8
2023-02-01T07:56:46.555Z,0.9
2023-02-01T08:02:21.413Z,1.1
2023-02-01T08:07:55.254Z,1.3
2023-02-01T08:13:39.758Z,1.5
2023-02-01T08:19:11.342Z,1.8
2023-02-01T08:24:27.340Z,2.1
2023-02-01T08:30:19.281Z,2
2023-02-01T08:35:50.809Z,1.7
2023-02-01T08:41:29.930Z,1.7
2023-02-01T08:46:48.086Z,1.9
2023-02-01T08:52:29.721Z,1.9
2023-02-01T08:58:12.042Z,1.9
2023-02-01T09:03:27.573Z,2
2023-02-01T09:09:15.587Z,2.2
2023-02-01T09:14:30.794Z,2.4
2023-02-01T09:20:22.948Z,2.6
2023-02-01T09:31:13.104Z,3.1
2023-02-01T09:36:43.723Z,3.1
2023-02-01T09:42:12.616Z,3.1
2023-02-01T09:48:12.633Z,3.1
2023-02-01T09:53:29.184Z,3.3
2023-02-01T09:59:05.339Z,3.4
2023-02-01T10:04:43.962Z,3.6
2023-02-01T10:10:20.770Z,3.7
2023-02-01T10:16:03.653Z,3.8
2023-02-01T10:21:11.633Z,3.7
2023-02-01T10:27:14.949Z,3.6
2023-02-01T10:32:39.099Z,3.4
2023-02-01T10:37:58.445Z,3.4
2023-02-01T10:43:38.414Z,3.6
2023-02-01T10:49:14.636Z,3.7
2023-02-01T10:54:49.088Z,3.8
2023-02-01T11:00:26.184Z,3.9
2023-02-01T11:05:59.640Z,3.8
2023-02-01T11:11:40.565Z,3.9
2023-02-01T11:16:55.808Z,4
2023-02-01T11:22:56.375Z,4.4
2023-02-01T11:28:20.354Z,5.1
2023-02-01T11:33:53.592Z,4.9
2023-02-01T11:39:13.795Z,5.4
2023-02-01T11:45:01.174Z,5.1
2023-02-01T11:50:46.977Z,5.2
2023-02-01T11:56:15.763Z,5.2
2023-02-01T12:01:41.804Z,5
2023-02-01T12:07:16.877Z,4.9
2023-02-01T12:12:39.576Z,5
2023-02-01T12:18:27.308Z,5.1
2023-02-01T12:24:06.416Z,5.1
2023-02-01T12:29:21.436Z,5.1
2023-02-01T12:35:01.931Z,5.4
2023-02-01T12:40:54.102Z,5.7
2023-02-01T12:46:30.749Z,6
2023-02-01T12:51:57.066Z,5.8
2023-02-01T12:57:26.518Z,5.8
2023-02-01T13:03:01.339Z,6.1
2023-02-01T13:08:45.195Z,6.9
2023-02-01T13:14:22.556Z,6.7
2023-02-01T13:19:39.988Z,6.9
2023-02-01T13:25:32.543Z,6.8
2023-02-01T13:30:49.325Z,6.6
2023-02-01T13:36:33.794Z,6.7
2023-02-01T13:42:01.608Z,6.5
2023-02-01T13:47:47.804Z,6.5
2023-02-01T13:53:02.947Z,6.5
2023-02-01T13:58:59.763Z,6.2
2023-02-01T14:04:25.400Z,6.3
2023-02-01T14:09:42.801Z,6.3
2023-02-01T14:15:32.640Z,6.6
2023-02-01T14:21:23.896Z,6.7
2023-02-01T14:26:48.204Z,6.7
2023-02-01T14:32:24.396Z,6.5
2023-02-01T14:37:58.107Z,6.6
2023-02-01T14:43:23.692Z,6.6
2023-02-01T14:49:00.899Z,6.6
2023-02-01T14:54:41.398Z,7.4
2023-02-01T15:00:05.253Z,6.6
2023-02-01T15:05:52.284Z,6.9
2023-02-01T15:11:30.405Z,6.5
2023-02-01T15:17:03.996Z,6.2
2023-02-01T15:22:38.684Z,6.2
2023-02-01T15:28:01.642Z,6.2
2023-02-01T15:33:43.164Z,6.2
2023-02-01T15:39:08.784Z,5.9
2023-02-01T15:44:36.109Z,5.8
2023-02-01T15:50:21.996Z,5.7
2023-02-01T15:55:57.463Z,5.6
2023-02-01T16:01:20.309Z,5.5
2023-02-01T16:06:59.264Z,5.4
2023-02-01T16:12:42.381Z,5.4
2023-02-01T16:18:19.692Z,5.3
2023-02-01T16:23:45.524Z,5.2
2023-02-01T16:29:19.877Z,5.3
2023-02-01T16:35:06.554Z,5.3
2023-02-01T16:40:34.359Z,5.3
2023-02-01T16:46:06.279Z,5.3
2023-02-01T16:51:25.371Z,5.4
2023-02-01T16:57:19.241Z,5.3
2023-02-01T17:02:41.192Z,5.3
2023-02-01T17:08:07.417Z,5.3
2023-02-01T17:13:58.063Z,5.3
2023-02-01T17:19:34.884Z,5.3
2023-02-01T17:25:04.824Z,5.3
2023-02-01T17:30:45.529Z,5.3
2023-02-01T17:36:10.801Z,5.2
2023-02-01T17:41:54.132Z,5.3
2023-02-01T17:47:26.075Z,5.3
2023-02-01T17:52:39.300Z,5.2
2023-02-01T17:58:10.992Z,5.2
2023-02-01T18:04:12.975Z,5.2
2023-02-01T18:09:26.298Z,5.3
2023-02-01T18:15:17.846Z,5.4
2023-02-01T18:20:42.162Z,5.3
2023-02-01T18:26:25.706Z,5.3
2023-02-01T18:32:03.527Z,5.3
2023-02-01T18:37:16.016Z,5.2
2023-02-01T18:42:50.281Z,5.2
2023-02-01T18:48:42.835Z,5.2
2023-02-01T18:53:52.950Z,5
2023-02-01T18:59:40.079Z,5.1
2023-02-01T19:05:21.757Z,5.1
2023-02-01T19:10:58.515Z,5.1
2023-02-01T19:16:29.854Z,5.1
2023-02-01T19:22:07.999Z,5.1
2023-02-01T19:27:29.952Z,5.1
2023-02-01T19:33:07.701Z,5.1
2023-02-01T19:38:46.458Z,5
2023-02-01T19:44:03.870Z,5.1
2023-02-01T19:49:38.095Z,5.1
2023-02-01T19:55:18.605Z,5.1
2023-02-01T20:00:41.624Z,5.1
2023-02-01T20:06:18.877Z,4.9
2023-02-01T20:11:53.201Z,4.9
2023-02-01T20:17:47.661Z,4.9
2023-02-01T20:23:05.324Z,4.9
2023-02-01T20:28:39.346Z,4.9
2023-02-01T20:34:03.616Z,5
2023-02-01T20:39:43.811Z,4.9
2023-02-01T20:45:24.286Z,4.9
2023-02-01T20:50:45.900Z,4.9
2023-02-01T20:56:23.865Z,4.8
2023-02-01T21:01:59.381Z,4.8
2023-02-01T21:07:42.775Z,4.8
2023-02-01T21:13:04.972Z,4.8
2023-02-01T21:18:43.125Z,4.9
2023-02-01T21:24:10.258Z,4.9
2023-02-01T21:30:02.014Z,4.8
2023-02-01T21:35:27.068Z,4.9
2023-02-01T21:40:59.170Z,4.8
2023-02-01T21:46:36.764Z,4.9
2023-02-01T21:52:04.110Z,4.9
2023-02-01T21:57:35.442Z,4.8
2023-02-01T22:03:07.989Z,4.7
2023-02-01T22:08:46.026Z,4.8
2023-02-01T22:14:23.464Z,4.7
2023-02-01T22:20:07.065Z,4.7
2023-02-01T22:25:29.019Z,4.6
2023-02-01T22:31:05.145Z,4.7
2023-02-01T22:36:33.945Z,4.7
2023-02-01T22:42:10.223Z,4.7
2023-02-01T22:47:46.892Z,4.7
2023-02-01T22:53:31.625Z,4.6
2023-02-01T22:58:59.393Z,4.6
2023-02-01T23:04:21.015Z,4.5
2023-02-01T23:09:57.706Z,4.6
2023-02-01T23:15:36.117Z,4.6
2023-02-01T23:21:19.533Z,4.6
2023-02-01T23:27:01.778Z,4.6
2023-02-01T23:32:20.108Z,4.6
2023-02-01T23:37:59.489Z,4.6
2023-02-01T23:43:21.537Z,4.6
2023-02-01T23:49:07.982Z,4.6
2023-02-01T23:54:29.492Z,4.7
